createdAt,value
2023-12-11T00:02:09.051Z,91.90
2023-12-11T00:04:35.836Z,91.91
2023-12-11T00:07:02.588Z,91.88
2023-12-11T00:09:29.438Z,91.58
2023-12-11T00:11:58.423Z,91.71
2023-12-11T00:14:25.474Z,91.61
2023-12-11T00:16:52.656Z,91.76
2023-12-11T00:19:19.809Z,91.53
2023-12-11T00:21:46.783Z,91.95
2023-12-11T00:24:13.527Z,91.93
2023-12-11T00:26:40.741Z,91.78
2023-12-11T00:29:07.504Z,91.59
2023-12-11T00:31:34.263Z,91.85
2023-12-11T00:34:01.098Z,91.91
2023-12-11T00:36:28.424Z,91.86
2023-12-11T00:38:55.278Z,91.92
2023-12-11T00:41:23.266Z,91.82
2023-12-11T00:43:52.526Z,91.74
2023-12-11T00:46:25.465Z,91.93
2023-12-11T00:48:52.407Z,91.88
2023-12-11T00:51:20.595Z,91.83
2023-12-11T00:53:49.479Z,91.92
2023-12-11T00:56:16.793Z,91.97
2023-12-11T00:58:44.257Z,91.68
2023-12-11T01:01:11.548Z,91.90
2023-12-11T01:03:39.521Z,92.02
2023-12-11T01:06:06.653Z,91.52
2023-12-11T01:08:35.002Z,91.55
2023-12-11T01:11:01.754Z,91.94
2023-12-11T01:13:28.584Z,91.93
2023-12-11T01:15:55.388Z,92.29
2023-12-11T01:18:22.262Z,92.19
2023-12-11T01:20:49.058Z,92.28
2023-12-11T01:23:15.789Z,92.22
2023-12-11T01:25:42.554Z,92.26
2023-12-11T01:28:09.515Z,92.46
2023-12-11T01:30:37.039Z,92.43
2023-12-11T01:33:04.968Z,92.08
2023-12-11T01:35:35.057Z,92.63
2023-12-11T01:38:02.386Z,92.48
2023-12-11T01:40:29.147Z,92.49
2023-12-11T01:43:06.849Z,92.70
2023-12-11T01:45:38.306Z,92.57
2023-12-11T01:48:05.811Z,92.39
2023-12-11T01:50:33.141Z,92.48
2023-12-11T01:53:00.579Z,92.65
2023-12-11T01:55:27.483Z,92.56
2023-12-11T01:57:54.572Z,92.68
2023-12-11T02:00:21.916Z,92.34
2023-12-11T02:02:48.602Z,92.79
2023-12-11T02:05:15.362Z,92.65
2023-12-11T02:07:42.420Z,92.64
2023-12-11T02:10:10.087Z,92.64
2023-12-11T02:12:36.987Z,92.47
2023-12-11T02:15:04.168Z,92.34
2023-12-11T02:17:31.400Z,92.36
2023-12-11T02:19:58.633Z,92.19
2023-12-11T02:22:26.042Z,92.42
2023-12-11T02:25:02.737Z,92.05
2023-12-11T02:27:31.028Z,91.89
2023-12-11T02:29:58.034Z,92.18
2023-12-11T02:32:24.726Z,92.21
2023-12-11T02:34:51.968Z,92.13
2023-12-11T02:37:18.775Z,92.19
2023-12-11T02:39:47.038Z,91.95
2023-12-11T02:42:13.898Z,91.80
2023-12-11T02:44:41.063Z,91.80
2023-12-11T02:47:07.788Z,91.88
2023-12-11T02:49:34.986Z,91.90
2023-12-11T02:52:02.040Z,91.99
2023-12-11T02:54:28.778Z,91.75
2023-12-11T02:56:55.711Z,91.90
2023-12-11T02:59:22.673Z,91.80
2023-12-11T03:01:49.578Z,91.67
2023-12-11T03:04:17.069Z,91.65
2023-12-11T03:06:43.880Z,91.53
2023-12-11T03:09:10.622Z,91.80
2023-12-11T03:11:37.529Z,91.63
2023-12-11T03:14:04.610Z,91.54
2023-12-11T03:16:31.624Z,91.52
2023-12-11T03:18:58.951Z,91.54
2023-12-11T03:21:25.727Z,91.58
2023-12-11T03:23:52.752Z,90.98
2023-12-11T03:26:19.549Z,90.88
2023-12-11T03:28:46.280Z,91.29
2023-12-11T03:31:13.041Z,91.06
2023-12-11T03:33:40.026Z,90.94
2023-12-11T03:36:07.310Z,90.80
2023-12-11T03:38:33.995Z,90.73
2023-12-11T03:41:00.835Z,90.91
2023-12-11T03:43:27.891Z,91.03
2023-12-11T03:45:57.382Z,91.18
2023-12-11T03:48:24.522Z,90.85
2023-12-11T03:50:51.370Z,90.89
2023-12-11T03:53:18.117Z,90.94
2023-12-11T03:55:44.842Z,90.88
2023-12-11T03:58:11.696Z,90.88
2023-12-11T04:00:38.531Z,90.73
2023-12-11T04:03:05.676Z,90.71
2023-12-11T04:05:32.892Z,90.68
2023-12-11T04:07:59.656Z,90.45
2023-12-11T04:10:26.745Z,90.70
2023-12-11T04:12:53.815Z,90.45
2023-12-11T04:15:20.599Z,90.49
2023-12-11T04:17:48.002Z,90.35
2023-12-11T04:20:15.015Z,90.40
2023-12-11T04:22:41.924Z,90.31
2023-12-11T04:25:09.623Z,90.16
2023-12-11T04:27:36.424Z,90.45
2023-12-11T04:30:03.263Z,90.07
2023-12-11T04:32:30.503Z,89.99
2023-12-11T04:34:57.428Z,89.92
2023-12-11T04:37:24.213Z,89.84
2023-12-11T04:39:51.664Z,89.58
2023-12-11T04:42:18.610Z,89.62
2023-12-11T04:44:45.344Z,89.26
2023-12-11T04:47:12.217Z,88.89
2023-12-11T04:49:39.232Z,88.85
2023-12-11T04:52:06.300Z,88.23
2023-12-11T04:54:33.285Z,88.09
2023-12-11T04:57:00.016Z,87.58
2023-12-11T04:59:26.697Z,87.54
2023-12-11T05:01:54.048Z,87.50
2023-12-11T05:04:21.114Z,86.67
2023-12-11T05:06:47.893Z,86.80
2023-12-11T05:09:14.746Z,85.97
2023-12-11T05:11:41.532Z,85.67
2023-12-11T05:14:08.266Z,85.19
2023-12-11T05:16:38.110Z,85.08
2023-12-11T05:19:05.239Z,84.81
2023-12-11T05:21:31.988Z,84.27
2023-12-11T05:23:58.795Z,84.21
2023-12-11T05:26:25.619Z,83.55
2023-12-11T05:28:52.316Z,83.25
2023-12-11T05:31:19.263Z,83.35
2023-12-11T05:33:46.224Z,82.86
2023-12-11T05:36:13.105Z,82.73
2023-12-11T05:38:39.850Z,82.51
2023-12-11T05:41:07.189Z,82.13
2023-12-11T05:43:34.070Z,81.98
2023-12-11T05:46:01.108Z,81.92
2023-12-11T05:48:27.949Z,81.82
2023-12-11T05:50:54.720Z,81.40
2023-12-11T05:53:21.514Z,81.09
2023-12-11T05:55:48.254Z,80.88
2023-12-11T05:58:15.130Z,80.56
2023-12-11T06:00:42.578Z,80.79
2023-12-11T06:03:09.491Z,80.65
2023-12-11T06:05:36.381Z,80.26
2023-12-11T06:08:03.828Z,80.29
2023-12-11T06:10:30.990Z,80.31
2023-12-11T06:12:57.817Z,80.16
2023-12-11T06:15:24.926Z,80.03
2023-12-11T06:17:51.731Z,79.53
2023-12-11T06:20:18.655Z,79.83
2023-12-11T06:22:48.500Z,80.01
2023-12-11T06:25:15.232Z,80.07
2023-12-11T06:27:42.066Z,79.42
2023-12-11T06:30:09.648Z,79.49
2023-12-11T06:32:36.467Z,79.55
2023-12-11T06:35:03.875Z,79.36
2023-12-11T06:37:31.323Z,79.81
2023-12-11T06:39:58.457Z,79.73
2023-12-11T06:42:25.220Z,79.80
2023-12-11T06:44:52.414Z,79.90
2023-12-11T06:47:19.137Z,79.65
2023-12-11T06:49:48.307Z,79.58
2023-12-11T06:52:17.195Z,79.56
2023-12-11T06:54:44.296Z,79.71
2023-12-11T06:57:11.068Z,79.70
2023-12-11T06:59:37.842Z,79.58
2023-12-11T07:02:05.586Z,79.34
2023-12-11T07:04:32.895Z,79.61
2023-12-11T07:07:00.139Z,79.58
2023-12-11T07:09:30.956Z,79.93
2023-12-11T07:11:57.838Z,79.55
2023-12-11T07:14:25.874Z,79.56
2023-12-11T07:16:53.181Z,79.38
2023-12-11T07:19:23.189Z,79.63
2023-12-11T07:21:50.460Z,79.80
2023-12-11T07:24:17.222Z,79.33
2023-12-11T07:26:43.952Z,80.03
2023-12-11T07:29:11.081Z,80.05
2023-12-11T07:31:38.034Z,79.76
2023-12-11T07:34:05.149Z,79.96
2023-12-11T07:36:32.843Z,79.96
2023-12-11T07:38:59.560Z,80.15
2023-12-11T07:41:26.273Z,80.10
2023-12-11T07:43:53.706Z,79.90
2023-12-11T07:46:22.027Z,80.35
2023-12-11T07:48:49.313Z,80.42
2023-12-11T07:51:20.370Z,80.72
2023-12-11T07:53:47.984Z,80.68
2023-12-11T07:56:22.519Z,80.44
2023-12-11T07:58:49.707Z,80.99
2023-12-11T08:01:16.909Z,80.78
2023-12-11T08:03:44.903Z,80.70
2023-12-11T08:06:12.653Z,80.60
2023-12-11T08:08:45.423Z,80.57
2023-12-11T08:11:17.773Z,80.80
2023-12-11T08:13:45.296Z,80.73
2023-12-11T08:16:13.045Z,80.70
2023-12-11T08:18:42.852Z,80.53
2023-12-11T08:21:09.754Z,80.54
2023-12-11T08:23:36.657Z,81.08
2023-12-11T08:26:03.790Z,81.03
2023-12-11T08:28:30.575Z,81.29
2023-12-11T08:30:57.957Z,81.22
2023-12-11T08:33:25.144Z,80.51
2023-12-11T08:35:52.176Z,80.84
2023-12-11T08:38:20.142Z,81.18
2023-12-11T08:40:47.117Z,80.96
2023-12-11T08:43:14.463Z,81.20
2023-12-11T08:45:41.910Z,80.49
2023-12-11T08:48:09.588Z,80.81
2023-12-11T08:50:37.043Z,80.25
2023-12-11T08:53:05.032Z,80.62
2023-12-11T08:55:32.841Z,80.51
2023-12-11T08:57:59.626Z,80.35
2023-12-11T09:00:26.682Z,80.42
2023-12-11T09:02:53.772Z,80.40
2023-12-11T09:05:21.199Z,80.53
2023-12-11T09:07:48.414Z,80.38
2023-12-11T09:10:15.852Z,80.33
2023-12-11T09:12:43.036Z,80.45
2023-12-11T09:15:11.439Z,80.12
2023-12-11T09:17:38.659Z,80.27
2023-12-11T09:20:07.784Z,80.26
2023-12-11T09:22:34.835Z,80.03
2023-12-11T09:25:01.985Z,80.38
2023-12-11T09:27:29.296Z,80.20
2023-12-11T09:29:56.620Z,80.20
2023-12-11T09:32:24.099Z,80.42
2023-12-11T09:34:51.354Z,80.10
2023-12-11T09:37:23.046Z,79.95
2023-12-11T09:39:50.545Z,80.09
2023-12-11T09:42:18.386Z,79.77
2023-12-11T09:44:46.925Z,79.66
2023-12-11T09:47:33.578Z,79.65
2023-12-11T09:50:01.643Z,79.55
2023-12-11T09:52:29.209Z,79.65
2023-12-11T09:54:56.691Z,79.79
2023-12-11T09:57:26.688Z,79.88
2023-12-11T09:59:54.049Z,79.40
2023-12-11T10:02:21.146Z,79.58
2023-12-11T10:05:06.424Z,79.59
2023-12-11T10:07:36.453Z,79.45
2023-12-11T10:10:21.346Z,79.06
2023-12-11T10:12:48.631Z,79.18
2023-12-11T10:15:26.495Z,79.31
2023-12-11T10:18:09.659Z,78.88
2023-12-11T10:20:39.939Z,78.86
2023-12-11T10:23:19.031Z,78.58
2023-12-11T10:25:49.261Z,78.23
2023-12-11T10:28:19.450Z,78.06
2023-12-11T10:30:53.499Z,77.91
2023-12-11T10:33:22.231Z,77.66
2023-12-11T10:35:50.036Z,77.27
2023-12-11T10:38:25.520Z,77.38
2023-12-11T10:40:53.901Z,77.04
2023-12-11T10:43:21.332Z,77.01
2023-12-11T10:45:51.652Z,76.84
2023-12-11T10:48:22.447Z,76.75
2023-12-11T10:50:50.448Z,76.63
2023-12-11T10:53:18.419Z,76.46
2023-12-11T10:55:48.295Z,76.50
2023-12-11T10:58:16.340Z,76.19
2023-12-11T11:00:46.055Z,76.27
2023-12-11T11:03:14.714Z,76.07
2023-12-11T11:05:42.793Z,76.13
2023-12-11T11:08:37.278Z,76.04
2023-12-11T11:11:24.226Z,75.68
2023-12-11T11:14:19.167Z,75.60
2023-12-11T11:16:56.753Z,75.51
2023-12-11T11:19:25.982Z,75.49
2023-12-11T11:22:05.658Z,75.21
2023-12-11T11:24:34.529Z,75.34
2023-12-11T11:27:06.010Z,75.06
2023-12-11T11:29:46.190Z,75.01
2023-12-11T11:32:13.781Z,74.98
2023-12-11T11:34:43.914Z,74.75
2023-12-11T11:37:22.539Z,74.98
2023-12-11T11:40:06.477Z,75.02
2023-12-11T11:42:35.439Z,75.15
2023-12-11T11:45:12.822Z,75.09
2023-12-11T11:47:40.454Z,75.07
2023-12-11T11:50:11.407Z,75.07
2023-12-11T11:52:42.800Z,75.13
2023-12-11T11:55:27.961Z,75.03
2023-12-11T11:57:58.593Z,75.14
2023-12-11T12:00:27.474Z,75.33
2023-12-11T12:03:02.632Z,75.03
2023-12-11T12:05:29.671Z,75.19
2023-12-11T12:07:57.453Z,75.11
2023-12-11T12:10:25.601Z,75.34
2023-12-11T12:13:00.311Z,75.08
2023-12-11T12:15:28.712Z,75.26
2023-12-11T12:18:07.454Z,75.03
2023-12-11T12:20:34.460Z,74.77
2023-12-11T12:23:02.941Z,74.95
2023-12-11T12:25:31.830Z,74.73
2023-12-11T12:28:14.911Z,74.99
2023-12-11T12:30:42.206Z,74.88
2023-12-11T12:33:11.498Z,75.00
2023-12-11T12:35:39.644Z,74.86
2023-12-11T12:38:08.979Z,74.83
2023-12-11T12:40:36.367Z,74.88
2023-12-11T12:43:14.823Z,75.13
2023-12-11T12:45:43.454Z,74.88
2023-12-11T12:48:11.194Z,74.67
2023-12-11T12:50:39.077Z,74.96
2023-12-11T12:53:12.341Z,74.79
2023-12-11T12:55:44.910Z,74.69
2023-12-11T12:58:15.565Z,74.69
2023-12-11T13:00:44.469Z,74.51
2023-12-11T13:03:11.801Z,74.62
2023-12-11T13:05:45.717Z,74.59
2023-12-11T13:08:15.988Z,74.45
2023-12-11T13:10:58.528Z,74.52
2023-12-11T13:13:28.279Z,74.77
2023-12-11T13:15:56.959Z,74.52
2023-12-11T13:18:24.071Z,74.71
2023-12-11T13:20:51.850Z,74.71
2023-12-11T13:23:19.979Z,74.47
2023-12-11T13:25:47.112Z,74.62
2023-12-11T13:28:14.077Z,74.43
2023-12-11T13:30:41.168Z,74.52
2023-12-11T13:33:08.224Z,74.48
2023-12-11T13:35:35.933Z,74.58
2023-12-11T13:38:02.951Z,74.47
2023-12-11T13:40:30.040Z,74.47
2023-12-11T13:42:57.223Z,74.54
2023-12-11T13:45:24.259Z,74.50
2023-12-11T13:47:51.354Z,74.50
2023-12-11T13:50:18.559Z,74.64
2023-12-11T13:52:45.654Z,74.75
2023-12-11T13:55:12.837Z,74.69
2023-12-11T13:57:39.982Z,74.80
2023-12-11T14:00:07.660Z,75.44
2023-12-11T14:02:59.584Z,75.25
2023-12-11T14:05:22.201Z,75.21
2023-12-11T14:07:50.522Z,75.36
2023-12-11T14:10:17.931Z,75.74
2023-12-11T14:12:45.078Z,75.52
2023-12-11T14:15:13.105Z,75.65
2023-12-11T14:17:40.109Z,76.26
2023-12-11T14:20:07.879Z,76.07
2023-12-11T14:22:36.229Z,76.31
2023-12-11T14:25:04.700Z,76.57
2023-12-11T14:27:32.129Z,76.50
2023-12-11T14:29:59.654Z,76.66
2023-12-11T14:32:27.080Z,76.89
2023-12-11T14:34:54.170Z,76.86
2023-12-11T14:37:21.733Z,77.00
2023-12-11T14:39:49.922Z,77.49
2023-12-11T14:42:16.743Z,77.37
2023-12-11T14:44:43.880Z,77.26
2023-12-11T14:47:10.829Z,77.85
2023-12-11T14:49:37.877Z,78.26
2023-12-11T14:52:05.379Z,78.14
2023-12-11T14:54:32.374Z,78.68
2023-12-11T14:56:59.358Z,78.50
2023-12-11T14:59:26.549Z,78.47
2023-12-11T15:01:53.656Z,78.83
2023-12-11T15:04:20.656Z,78.67
2023-12-11T15:06:47.958Z,79.21
2023-12-11T15:09:16.771Z,79.56
2023-12-11T15:11:44.090Z,79.23
2023-12-11T15:14:14.030Z,79.16
2023-12-11T15:16:42.630Z,79.28
2023-12-11T15:19:10.321Z,79.48
2023-12-11T15:21:38.206Z,79.47
2023-12-11T15:24:06.988Z,79.94
2023-12-11T15:26:34.181Z,79.53
2023-12-11T15:29:05.879Z,79.79
2023-12-11T15:31:33.916Z,80.13
2023-12-11T15:34:01.981Z,80.39
2023-12-11T15:36:28.960Z,80.15
2023-12-11T15:38:55.903Z,80.12
2023-12-11T15:41:23.011Z,80.31
2023-12-11T15:43:50.074Z,80.52
2023-12-11T15:46:17.219Z,80.24
2023-12-11T15:48:45.685Z,80.25
2023-12-11T15:51:17.061Z,80.70
2023-12-11T15:53:47.815Z,80.74
2023-12-11T15:56:17.495Z,80.61
2023-12-11T15:58:44.864Z,81.02
2023-12-11T16:01:12.712Z,81.26
2023-12-11T16:03:40.295Z,81.47
2023-12-11T16:06:08.413Z,81.38
2023-12-11T16:08:35.568Z,81.32
2023-12-11T16:11:02.405Z,81.76
2023-12-11T16:13:29.508Z,82.02
2023-12-11T16:15:57.658Z,81.46
2023-12-11T16:18:25.175Z,81.58
2023-12-11T16:20:52.301Z,81.88
2023-12-11T16:23:19.555Z,81.97
2023-12-11T16:25:55.616Z,81.69
2023-12-11T16:28:27.339Z,81.75
2023-12-11T16:30:55.033Z,81.76
2023-12-11T16:33:22.159Z,81.68
2023-12-11T16:35:49.216Z,82.29
2023-12-11T16:38:16.475Z,81.83
2023-12-11T16:40:43.521Z,82.27
2023-12-11T16:43:10.733Z,82.08
2023-12-11T16:45:38.099Z,82.15
2023-12-11T16:48:05.457Z,81.85
2023-12-11T16:50:32.637Z,82.33
2023-12-11T16:53:00.538Z,81.98
2023-12-11T16:55:27.713Z,82.12
2023-12-11T16:57:54.661Z,81.57
2023-12-11T17:11:44.953Z,80.73
2023-12-11T17:14:12.088Z,80.75
2023-12-11T17:16:39.104Z,80.73
2023-12-11T17:19:06.820Z,80.80
2023-12-11T17:21:34.472Z,81.33
2023-12-11T17:24:01.759Z,81.04
2023-12-11T17:26:28.895Z,81.07
2023-12-11T17:28:56.234Z,81.62
2023-12-11T17:31:23.119Z,81.13
2023-12-11T17:33:52.725Z,81.26
2023-12-11T17:36:19.754Z,81.57
2023-12-11T17:38:46.715Z,81.00
2023-12-11T17:41:13.746Z,81.15
2023-12-11T17:43:40.500Z,81.72
2023-12-11T17:46:07.950Z,81.81
2023-12-11T17:48:35.202Z,81.73
2023-12-11T17:51:06.877Z,82.10
2023-12-11T17:53:34.827Z,81.98
2023-12-11T17:56:03.491Z,82.05
2023-12-11T17:58:30.328Z,82.25
2023-12-11T18:00:57.473Z,82.36
2023-12-11T18:03:25.519Z,82.89
2023-12-11T18:05:52.350Z,83.22
2023-12-11T18:08:19.148Z,83.78
2023-12-11T18:10:46.564Z,84.18
2023-12-11T18:13:13.320Z,84.68
2023-12-11T18:15:40.254Z,84.57
2023-12-11T18:18:07.271Z,85.07
2023-12-11T18:20:34.081Z,84.77
2023-12-11T18:23:01.906Z,85.20
2023-12-11T18:25:29.029Z,85.09
2023-12-11T18:27:55.939Z,85.34
2023-12-11T18:30:22.793Z,85.44
2023-12-11T18:32:50.013Z,85.19
2023-12-11T18:35:17.666Z,85.47
2023-12-11T18:37:44.494Z,85.72
2023-12-11T18:40:12.774Z,85.59
2023-12-11T18:42:39.832Z,85.62
2023-12-11T18:45:07.608Z,85.41
2023-12-11T18:47:35.031Z,85.70
2023-12-11T18:50:02.566Z,85.49
2023-12-11T18:52:29.487Z,85.15
2023-12-11T18:54:56.645Z,85.30
2023-12-11T18:57:23.445Z,84.88
2023-12-11T18:59:50.213Z,85.14
2023-12-11T19:02:17.429Z,85.19
2023-12-11T19:04:44.771Z,85.24
2023-12-11T19:07:11.846Z,85.08
2023-12-11T19:09:39.156Z,85.31
2023-12-11T19:12:06.513Z,84.60
2023-12-11T19:14:33.565Z,84.65
2023-12-11T19:17:00.686Z,84.73
2023-12-11T19:19:27.976Z,84.15
2023-12-11T19:21:55.118Z,84.37
2023-12-11T19:24:22.629Z,84.16
2023-12-11T19:26:49.537Z,83.99
2023-12-11T19:29:17.884Z,84.42
2023-12-11T19:31:45.806Z,84.55
2023-12-11T19:34:13.007Z,84.63
2023-12-11T19:36:43.403Z,84.42
2023-12-11T19:39:13.558Z,84.53
2023-12-11T19:41:43.253Z,84.23
2023-12-11T19:44:13.562Z,84.54
2023-12-11T19:46:45.198Z,84.78
2023-12-11T19:49:12.686Z,84.63
2023-12-11T19:51:39.982Z,84.79
2023-12-11T19:54:08.750Z,84.77
2023-12-11T19:56:35.851Z,84.89
2023-12-11T19:59:04.213Z,85.04
2023-12-11T20:01:35.131Z,84.83
2023-12-11T20:04:02.529Z,85.21
2023-12-11T20:06:29.779Z,85.55
2023-12-11T20:08:57.179Z,85.29
2023-12-11T20:11:23.913Z,85.51
2023-12-11T20:13:51.131Z,85.60
2023-12-11T20:16:19.010Z,85.54
2023-12-11T20:18:46.858Z,85.47
2023-12-11T20:21:14.192Z,85.57
2023-12-11T20:23:41.955Z,85.53
2023-12-11T20:26:12.903Z,85.30
2023-12-11T20:28:39.864Z,85.19
2023-12-11T20:31:19.851Z,84.97
2023-12-11T20:33:47.793Z,85.23
2023-12-11T20:36:16.410Z,84.82
2023-12-11T20:38:44.794Z,84.91
2023-12-11T20:41:25.161Z,84.75
2023-12-11T20:43:53.690Z,84.85
2023-12-11T20:46:25.219Z,84.95
2023-12-11T20:48:54.100Z,84.67
2023-12-11T20:51:21.869Z,84.54
2023-12-11T20:53:49.371Z,84.31
2023-12-11T20:56:24.493Z,84.70
2023-12-11T20:58:52.447Z,84.77
2023-12-11T21:01:33.586Z,84.66
2023-12-11T21:04:02.617Z,84.15
2023-12-11T21:06:30.871Z,84.13
2023-12-11T21:08:58.792Z,84.30
2023-12-11T21:11:26.381Z,84.03
2023-12-11T21:13:54.723Z,83.92
2023-12-11T21:16:22.143Z,84.16
2023-12-11T21:18:50.940Z,84.01
2023-12-11T21:21:19.902Z,84.01
2023-12-11T21:23:48.451Z,84.20
2023-12-11T21:26:20.053Z,83.40
2023-12-11T21:28:48.071Z,83.99
2023-12-11T21:31:26.023Z,84.49
2023-12-11T21:33:54.102Z,84.40
2023-12-11T21:36:22.769Z,84.56
2023-12-11T21:38:51.019Z,84.85
2023-12-11T21:41:18.770Z,84.64
2023-12-11T21:43:47.914Z,84.93
2023-12-11T21:46:15.258Z,84.72
2023-12-11T21:48:45.770Z,84.77
2023-12-11T21:51:20.565Z,85.05
2023-12-11T21:53:48.842Z,84.78
2023-12-11T21:56:15.916Z,84.79
2023-12-11T21:58:43.894Z,85.14
2023-12-11T22:01:11.294Z,85.57
2023-12-11T22:03:38.843Z,85.20
2023-12-11T22:06:06.343Z,85.13
2023-12-11T22:08:33.682Z,85.37
2023-12-11T22:11:00.938Z,85.10
2023-12-11T22:13:28.453Z,85.02
2023-12-11T22:15:55.496Z,85.30
2023-12-11T22:18:22.611Z,85.62
2023-12-11T22:20:49.957Z,85.31
2023-12-11T22:23:16.952Z,85.67
2023-12-11T22:25:43.965Z,85.60
2023-12-11T22:28:11.204Z,85.97
2023-12-11T22:30:38.322Z,86.03
2023-12-11T22:33:05.467Z,85.83
2023-12-11T22:35:32.680Z,85.79
2023-12-11T22:37:59.684Z,85.92
2023-12-11T22:40:26.752Z,86.42
2023-12-11T22:42:54.043Z,86.27
2023-12-11T22:45:22.695Z,86.49
2023-12-11T22:47:50.452Z,86.24
2023-12-11T22:50:17.433Z,86.35
2023-12-11T22:52:44.418Z,86.36
2023-12-11T22:55:11.412Z,86.44
2023-12-11T22:57:40.194Z,86.66
2023-12-11T23:00:12.212Z,86.77
2023-12-11T23:02:39.343Z,86.52
2023-12-11T23:05:06.806Z,86.64
2023-12-11T23:07:34.190Z,87.10
2023-12-11T23:10:01.395Z,86.82
2023-12-11T23:12:28.218Z,86.36
2023-12-11T23:14:55.021Z,86.80
2023-12-11T23:17:22.018Z,86.53
2023-12-11T23:19:49.379Z,86.33
2023-12-11T23:22:16.482Z,86.93
2023-12-11T23:24:43.328Z,87.15
2023-12-11T23:27:10.130Z,87.29
2023-12-11T23:29:36.886Z,87.23
2023-12-11T23:32:04.138Z,87.43
2023-12-11T23:34:31.061Z,87.65
2023-12-11T23:36:58.719Z,87.18
2023-12-11T23:39:25.564Z,87.62
2023-12-11T23:41:52.518Z,87.44
2023-12-11T23:44:21.469Z,87.74
2023-12-11T23:46:49.726Z,88.20
2023-12-11T23:49:16.964Z,88.22
2023-12-11T23:51:43.855Z,88.04
2023-12-11T23:54:10.583Z,88.14
2023-12-11T23:56:37.621Z,88.62
2023-12-11T23:59:09.860Z,88.53
